Terminal Aerodrome Forecast
Issued by NWS

Home | Current Version | Previous Version | Text Only | Print | Product List | Glossary On
Versions: 1 2 3 4 5 6 7 8 9 10 11 12 13 14 15 16
631
FTUS46 KLOX 221122
TAFBUR
TAF
KBUR 221122Z 2212/2312 VRB03KT P6SM SKC
     FM221900 15008KT P6SM SKC
     FM222100 19014KT P6SM SCT120
     FM230300 20010KT P6SM VCSH SCT080
     FM230500 33010KT P6SM VCSH SCT080=

USA.gov is the U.S. government's official web portal to all federal, state and local government web resources and services.